createdAt,value
2023-01-17T00:00:06.765Z,0.63
2023-01-17T00:02:33.331Z,0.60
2023-01-17T00:04:59.871Z,0.60
2023-01-17T00:07:27.795Z,0.70
2023-01-17T00:09:54.315Z,0.70
2023-01-17T00:12:21.601Z,0.70
2023-01-17T00:14:48.555Z,0.73
2023-01-17T00:17:15.438Z,0.75
2023-01-17T00:19:41.887Z,0.90
2023-01-17T00:22:28.934Z,0.80
2023-01-17T00:24:55.563Z,0.90
2023-01-17T00:27:21.999Z,1.02
2023-01-17T00:29:48.533Z,0.80
2023-01-17T00:32:15.030Z,0.97
2023-01-17T00:34:41.477Z,0.90
2023-01-17T00:37:08.126Z,1.00
2023-01-17T00:39:34.572Z,0.93
2023-01-17T00:42:01.074Z,0.80
2023-01-17T00:44:27.490Z,0.73
2023-01-17T00:46:54.006Z,1.13
2023-01-17T00:49:20.560Z,0.95
2023-01-17T00:51:47.197Z,1.15
2023-01-17T00:54:14.420Z,0.75
2023-01-17T00:56:40.947Z,1.10
2023-01-17T00:59:07.479Z,0.90
2023-01-17T01:01:34.946Z,1.23
2023-01-17T01:04:01.551Z,1.20
2023-01-17T01:06:28.106Z,0.82
2023-01-17T01:08:54.573Z,1.07
2023-01-17T01:11:21.533Z,1.15
2023-01-17T01:13:47.993Z,1.20
2023-01-17T01:16:15.292Z,1.10
2023-01-17T01:18:41.820Z,0.80
2023-01-17T01:21:08.338Z,0.70
2023-01-17T01:23:35.293Z,1.20
2023-01-17T01:26:03.862Z,1.50
2023-01-17T01:28:30.428Z,1.38
2023-01-17T01:31:02.491Z,1.00
2023-01-17T01:33:29.024Z,1.30
2023-01-17T01:35:55.813Z,1.30
2023-01-17T01:38:24.759Z,1.25
2023-01-17T01:40:53.852Z,1.00
2023-01-17T01:43:39.546Z,1.25
2023-01-17T01:46:08.011Z,1.40
2023-01-17T01:48:54.986Z,1.20
2023-01-17T01:51:45.618Z,1.20
2023-01-17T01:54:19.318Z,1.00
2023-01-17T01:56:47.079Z,1.38
2023-01-17T01:59:17.542Z,0.87
2023-01-17T02:01:44.122Z,0.80
2023-01-17T02:04:11.222Z,0.80
2023-01-17T02:06:43.767Z,0.80
2023-01-17T02:09:12.683Z,0.90
2023-01-17T02:11:40.277Z,0.63
2023-01-17T02:14:07.182Z,0.82
2023-01-17T02:16:38.045Z,0.73
2023-01-17T02:19:07.399Z,1.00
2023-01-17T02:21:47.835Z,1.00
2023-01-17T02:24:33.513Z,1.23
2023-01-17T02:27:29.447Z,1.27
2023-01-17T02:30:19.001Z,1.10
2023-01-17T02:32:48.748Z,1.45
2023-01-17T02:35:42.186Z,1.05
2023-01-17T02:38:29.393Z,1.03
2023-01-17T02:41:01.391Z,1.33
2023-01-17T02:43:28.183Z,1.10
2023-01-17T02:45:54.783Z,1.17
2023-01-17T02:48:25.673Z,1.20
2023-01-17T02:51:16.783Z,1.10
2023-01-17T02:53:56.640Z,0.63
2023-01-17T02:56:31.694Z,1.00
2023-01-17T02:59:23.855Z,0.77
2023-01-17T03:02:08.967Z,0.75
2023-01-17T03:04:44.845Z,0.80
2023-01-17T03:07:25.888Z,1.00
2023-01-17T03:09:57.391Z,1.02
2023-01-17T03:12:27.918Z,0.77
2023-01-17T03:14:54.428Z,0.82
2023-01-17T03:17:21.603Z,0.70
2023-01-17T03:19:48.062Z,0.70
2023-01-17T03:22:14.484Z,0.80
2023-01-17T03:24:40.951Z,0.80
2023-01-17T03:27:07.432Z,1.00
2023-01-17T03:29:33.966Z,0.63
2023-01-17T03:32:00.562Z,0.75
2023-01-17T03:34:27.138Z,1.17
2023-01-17T03:36:53.572Z,1.00
2023-01-17T03:39:20.040Z,1.23
2023-01-17T03:41:46.442Z,0.90
2023-01-17T03:44:12.854Z,1.00
2023-01-17T03:46:39.382Z,1.15
2023-01-17T03:49:05.883Z,0.90
2023-01-17T03:51:32.423Z,1.10
2023-01-17T03:53:58.869Z,0.80
2023-01-17T03:56:25.294Z,0.90
2023-01-17T03:58:51.730Z,1.20
2023-01-17T04:01:18.293Z,1.42
2023-01-17T04:03:44.905Z,1.15
2023-01-17T04:06:11.455Z,1.20
2023-01-17T04:08:38.001Z,1.27
2023-01-17T04:11:04.631Z,1.27
2023-01-17T04:13:31.176Z,1.40
2023-01-17T04:15:58.011Z,1.52
2023-01-17T04:18:24.826Z,1.43
2023-01-17T04:20:51.690Z,1.60
2023-01-17T04:23:18.592Z,2.35
2023-01-17T04:25:45.174Z,2.50
2023-01-17T04:28:11.943Z,3.15
2023-01-17T04:30:38.454Z,3.30
2023-01-17T04:33:05.256Z,3.90
2023-01-17T04:35:32.463Z,3.80
2023-01-17T04:37:59.458Z,4.78
2023-01-17T04:40:26.018Z,6.82
2023-01-17T04:42:52.602Z,5.63
2023-01-17T04:45:19.157Z,6.43
2023-01-17T04:47:45.622Z,6.25
2023-01-17T04:50:12.337Z,5.82
2023-01-17T04:52:38.821Z,5.90
2023-01-17T04:55:06.141Z,6.63
2023-01-17T04:57:32.830Z,5.68
2023-01-17T04:59:59.429Z,5.55
2023-01-17T05:02:26.045Z,5.53
2023-01-17T05:04:52.629Z,5.82
2023-01-17T05:07:19.159Z,5.60
2023-01-17T05:09:45.721Z,5.63
2023-01-17T05:12:12.112Z,5.70
2023-01-17T05:14:38.703Z,5.63
2023-01-17T05:17:05.211Z,4.75
2023-01-17T05:19:31.788Z,4.90
2023-01-17T05:21:58.221Z,5.15
2023-01-17T05:24:24.655Z,5.75
2023-01-17T05:26:51.173Z,5.82
2023-01-17T05:29:17.665Z,5.65
2023-01-17T05:31:44.169Z,5.60
2023-01-17T05:34:11.387Z,6.20
2023-01-17T05:36:37.964Z,7.47
2023-01-17T05:39:04.544Z,7.55
2023-01-17T05:41:30.992Z,7.65
2023-01-17T05:43:57.465Z,8.10
2023-01-17T05:46:23.967Z,7.15
2023-01-17T05:48:50.452Z,8.27
2023-01-17T05:51:17.086Z,8.68
2023-01-17T05:53:43.593Z,8.57
2023-01-17T05:56:10.053Z,8.07
2023-01-17T05:58:36.560Z,8.60
2023-01-17T06:01:03.046Z,8.60
2023-01-17T06:03:29.784Z,8.90
2023-01-17T06:05:56.248Z,10.85
2023-01-17T06:08:22.836Z,10.53
2023-01-17T06:10:49.729Z,11.05
2023-01-17T06:13:16.164Z,11.18
2023-01-17T06:15:42.774Z,12.02
2023-01-17T06:18:11.820Z,13.00
2023-01-17T06:20:38.626Z,12.77
2023-01-17T06:23:07.048Z,12.68
2023-01-17T06:25:42.186Z,14.43
2023-01-17T06:28:08.696Z,14.75
2023-01-17T06:30:35.526Z,13.23
2023-01-17T06:33:02.560Z,14.07
2023-01-17T06:35:29.272Z,15.40
2023-01-17T06:37:56.089Z,15.57
2023-01-17T06:40:22.539Z,15.50
2023-01-17T06:42:49.000Z,15.20
2023-01-17T06:45:15.602Z,14.97
2023-01-17T06:47:42.689Z,16.55
2023-01-17T06:50:12.022Z,16.30
2023-01-17T06:52:38.474Z,16.42
2023-01-17T06:55:05.416Z,16.52
2023-01-17T06:57:31.908Z,17.00
2023-01-17T06:59:58.373Z,15.35
2023-01-17T07:02:24.933Z,17.92
2023-01-17T07:04:52.022Z,16.63
2023-01-17T07:07:18.567Z,17.45
2023-01-17T07:09:45.018Z,16.57
2023-01-17T07:12:11.478Z,15.73
2023-01-17T07:14:38.008Z,17.35
2023-01-17T07:17:04.719Z,15.88
2023-01-17T07:19:31.178Z,15.48
2023-01-17T07:21:57.743Z,15.10
2023-01-17T07:24:24.469Z,15.75
2023-01-17T07:26:51.814Z,14.68
2023-01-17T07:29:18.846Z,15.38
2023-01-17T07:31:45.467Z,14.45
2023-01-17T07:34:12.107Z,15.93
2023-01-17T07:36:38.544Z,16.10
2023-01-17T07:39:06.368Z,15.10
2023-01-17T07:41:33.858Z,14.52
2023-01-17T07:44:00.542Z,15.05
2023-01-17T07:46:27.237Z,15.40
2023-01-17T07:48:53.704Z,15.60
2023-01-17T07:51:20.188Z,16.17
2023-01-17T07:53:46.741Z,15.93
2023-01-17T07:56:13.245Z,14.27
2023-01-17T07:58:39.723Z,15.73
2023-01-17T08:01:11.799Z,14.57
2023-01-17T08:03:38.731Z,15.52
2023-01-17T08:06:23.761Z,16.48
2023-01-17T08:08:50.348Z,15.32
2023-01-17T08:11:19.379Z,16.13
2023-01-17T08:13:45.865Z,15.73
2023-01-17T08:16:13.578Z,15.10
2023-01-17T08:18:40.268Z,15.60
2023-01-17T08:21:16.943Z,15.10
2023-01-17T08:23:47.806Z,14.67
2023-01-17T08:26:15.124Z,15.35
2023-01-17T08:28:41.626Z,14.77
2023-01-17T08:31:09.310Z,14.15
2023-01-17T08:33:35.733Z,13.68
2023-01-17T08:36:02.307Z,14.80
2023-01-17T08:38:31.541Z,14.23
2023-01-17T08:41:00.993Z,13.73
2023-01-17T08:43:27.416Z,15.05
2023-01-17T08:45:53.972Z,15.43
2023-01-17T08:48:20.499Z,15.63
2023-01-17T08:50:47.079Z,14.00
2023-01-17T08:53:13.556Z,13.73
2023-01-17T08:55:39.996Z,14.45
2023-01-17T08:58:07.299Z,14.00
2023-01-17T09:00:34.577Z,13.77
2023-01-17T09:03:01.097Z,14.70
2023-01-17T09:05:28.145Z,14.02
2023-01-17T09:07:55.531Z,14.63
2023-01-17T09:10:22.576Z,15.23
2023-01-17T09:15:33.526Z,15.60
2023-01-17T09:18:00.006Z,14.63
2023-01-17T09:20:26.617Z,15.60
2023-01-17T09:23:11.824Z,15.07
2023-01-17T09:25:38.338Z,15.10
2023-01-17T09:28:05.043Z,14.98
2023-01-17T09:30:31.930Z,14.93
2023-01-17T09:32:58.431Z,17.75
2023-01-17T09:35:25.044Z,15.88
2023-01-17T09:37:51.858Z,14.63
2023-01-17T09:40:22.753Z,14.48
2023-01-17T09:42:54.056Z,14.18
2023-01-17T09:45:21.174Z,13.05
2023-01-17T09:47:51.041Z,13.13
2023-01-17T09:50:41.793Z,13.00
2023-01-17T09:53:17.696Z,12.35
2023-01-17T09:55:49.404Z,11.77
2023-01-17T09:58:20.925Z,12.38
2023-01-17T10:01:33.484Z,11.15
2023-01-17T10:04:20.498Z,10.70
2023-01-17T10:07:12.096Z,11.68
2023-01-17T10:09:59.496Z,11.48
2023-01-17T10:12:37.089Z,10.80
2023-01-17T10:15:13.509Z,9.00
2023-01-17T10:17:46.736Z,8.00
2023-01-17T10:20:32.620Z,8.35
2023-01-17T10:23:17.524Z,8.30
2023-01-17T10:25:50.433Z,6.82
2023-01-17T10:28:35.129Z,6.57
2023-01-17T10:31:24.910Z,7.90
2023-01-17T10:33:56.457Z,8.50
2023-01-17T10:36:26.138Z,7.63
2023-01-17T10:38:59.425Z,10.80
2023-01-17T10:41:32.056Z,8.77
2023-01-17T10:44:23.378Z,8.10
2023-01-17T10:46:55.371Z,7.65
2023-01-17T10:49:24.942Z,9.25
2023-01-17T10:52:00.587Z,9.25
2023-01-17T10:55:00.832Z,10.80
2023-01-17T10:57:27.931Z,10.70
2023-01-17T11:00:00.260Z,10.88
2023-01-17T11:02:37.341Z,10.55
2023-01-17T11:05:18.341Z,10.68
2023-01-17T11:08:07.093Z,10.02
2023-01-17T11:10:48.731Z,9.77
2023-01-17T11:13:25.940Z,11.60
2023-01-17T11:16:17.964Z,12.15
2023-01-17T11:18:45.115Z,11.27
2023-01-17T11:21:21.893Z,13.30
2023-01-17T11:23:52.248Z,11.80
2023-01-17T11:26:27.911Z,11.90
2023-01-17T11:29:36.932Z,10.85
2023-01-17T11:32:22.234Z,9.48
2023-01-17T11:35:15.116Z,8.32
2023-01-17T11:38:13.616Z,8.03
2023-01-17T11:40:40.118Z,8.60
2023-01-17T11:43:25.228Z,8.07
2023-01-17T11:46:16.376Z,8.35
2023-01-17T11:48:49.525Z,8.40
2023-01-17T11:51:30.200Z,7.23
2023-01-17T11:54:26.450Z,6.50
2023-01-17T11:57:02.335Z,7.10
2023-01-17T11:59:43.196Z,7.43
2023-01-17T12:02:31.572Z,7.90
2023-01-17T12:05:25.673Z,7.77
2023-01-17T12:08:20.071Z,5.97
2023-01-17T12:10:58.131Z,5.80
2023-01-17T12:14:13.023Z,4.28
2023-01-17T12:17:08.361Z,5.57
2023-01-17T12:20:09.881Z,4.70
2023-01-17T12:22:54.987Z,4.70
2023-01-17T12:25:24.148Z,3.72
2023-01-17T12:28:13.539Z,4.40
2023-01-17T12:30:43.009Z,5.20
2023-01-17T12:33:28.259Z,4.73
2023-01-17T12:35:54.656Z,4.68
2023-01-17T12:38:38.580Z,5.38
2023-01-17T12:41:30.936Z,4.80
2023-01-17T12:44:00.266Z,4.88
2023-01-17T12:46:50.162Z,4.20
2023-01-17T12:49:28.543Z,3.42
2023-01-17T12:52:06.712Z,3.00
2023-01-17T12:54:39.026Z,3.33
2023-01-17T12:57:16.585Z,3.33
2023-01-17T12:59:57.978Z,4.00
2023-01-17T13:03:03.082Z,5.50
2023-01-17T13:05:49.745Z,4.05
2023-01-17T13:08:28.209Z,3.60
2023-01-17T13:11:30.645Z,3.50
2023-01-17T13:13:57.333Z,4.47
2023-01-17T13:16:33.022Z,3.92
2023-01-17T13:19:06.225Z,3.97
2023-01-17T13:21:34.343Z,4.95
2023-01-17T13:24:00.804Z,4.07
2023-01-17T13:26:29.907Z,3.77
2023-01-17T13:29:12.144Z,3.13
2023-01-17T13:31:47.952Z,3.00
2023-01-17T13:34:40.039Z,3.80
2023-01-17T13:37:30.102Z,4.47
2023-01-17T13:40:30.353Z,5.47
2023-01-17T13:43:00.946Z,5.03
2023-01-17T13:45:31.003Z,3.40
2023-01-17T13:48:12.544Z,2.97
2023-01-17T13:50:41.841Z,3.33
2023-01-17T13:53:36.053Z,3.20
2023-01-17T13:56:19.432Z,3.10
2023-01-17T13:58:45.845Z,3.20
2023-01-17T14:01:12.428Z,3.85
2023-01-17T14:03:51.127Z,2.80
2023-01-17T14:06:35.904Z,2.77
2023-01-17T14:09:08.588Z,2.50
2023-01-17T14:11:59.304Z,2.72
2023-01-17T14:14:34.729Z,2.63
2023-01-17T14:17:16.600Z,3.75
2023-01-17T14:19:46.476Z,2.77
2023-01-17T14:22:22.661Z,2.78
2023-01-17T14:25:08.066Z,2.75
2023-01-17T14:27:35.153Z,2.67
2023-01-17T14:30:16.176Z,2.58
2023-01-17T14:33:02.758Z,3.10
2023-01-17T14:35:32.469Z,2.67
2023-01-17T14:37:59.977Z,3.80
2023-01-17T14:40:28.828Z,4.00
2023-01-17T14:43:13.862Z,4.03
2023-01-17T14:45:42.344Z,4.20
2023-01-17T14:48:22.490Z,2.83
2023-01-17T14:50:50.882Z,2.60
2023-01-17T14:53:24.815Z,3.40
2023-01-17T14:55:53.517Z,4.20
2023-01-17T14:58:31.083Z,3.10
2023-01-17T15:01:01.477Z,5.15
2023-01-17T15:03:30.218Z,2.80
2023-01-17T15:06:04.888Z,2.83
2023-01-17T15:08:35.520Z,3.00
2023-01-17T15:11:10.119Z,3.20
2023-01-17T15:13:45.055Z,4.85
2023-01-17T15:16:19.794Z,3.42
2023-01-17T15:18:46.583Z,3.67
2023-01-17T15:21:17.204Z,5.03
2023-01-17T15:23:55.233Z,4.97
2023-01-17T15:26:25.175Z,4.32
2023-01-17T15:28:53.301Z,3.25
2023-01-17T15:31:36.686Z,3.53
2023-01-17T15:34:07.083Z,4.45
2023-01-17T15:36:34.116Z,4.70
2023-01-17T15:39:04.963Z,4.50
2023-01-17T15:41:34.628Z,4.28
2023-01-17T15:44:01.532Z,4.70
2023-01-17T15:46:42.728Z,5.22
2023-01-17T15:49:20.708Z,5.20
2023-01-17T15:52:14.864Z,4.85
2023-01-17T15:54:42.902Z,5.03
2023-01-17T15:57:24.624Z,5.82
2023-01-17T16:00:04.856Z,5.93
2023-01-17T16:02:36.130Z,6.57
2023-01-17T16:05:24.646Z,6.68
2023-01-17T16:07:56.681Z,7.00
2023-01-17T16:10:29.125Z,8.00
2023-01-17T16:12:55.757Z,8.38
2023-01-17T16:15:23.008Z,8.57
2023-01-17T16:17:52.604Z,8.52
2023-01-17T16:20:23.671Z,8.98
2023-01-17T16:22:50.865Z,9.35
2023-01-17T16:25:21.254Z,10.07
2023-01-17T16:27:48.325Z,10.50
2023-01-17T16:30:18.496Z,10.80
2023-01-17T16:32:46.714Z,11.57
2023-01-17T16:35:21.120Z,13.52
2023-01-17T16:37:51.813Z,12.68
2023-01-17T16:40:20.168Z,12.97
2023-01-17T16:42:46.951Z,12.25
2023-01-17T16:45:14.479Z,12.52
2023-01-17T16:47:46.292Z,11.75
2023-01-17T16:50:15.821Z,11.73
2023-01-17T16:52:42.315Z,11.70
2023-01-17T16:55:12.982Z,12.65
2023-01-17T16:57:40.073Z,13.30
2023-01-17T17:00:08.675Z,14.48
2023-01-17T17:02:35.241Z,13.90
2023-01-17T17:05:01.803Z,13.13
2023-01-17T17:07:28.334Z,11.95
2023-01-17T17:09:54.801Z,11.40
2023-01-17T17:12:21.323Z,12.90
2023-01-17T17:14:47.876Z,18.98
2023-01-17T17:17:14.738Z,24.17
2023-01-17T17:19:41.377Z,21.83
2023-01-17T17:22:07.898Z,20.80
2023-01-17T17:24:34.396Z,18.67
2023-01-17T17:27:00.918Z,19.75
2023-01-17T17:29:27.428Z,19.53
2023-01-17T17:31:53.869Z,16.98
2023-01-17T17:34:20.378Z,14.07
2023-01-17T17:36:46.996Z,12.70
2023-01-17T17:39:14.717Z,11.60
2023-01-17T17:41:43.350Z,9.73
2023-01-17T17:44:10.211Z,10.60
2023-01-17T17:46:36.836Z,10.38
2023-01-17T17:49:03.672Z,12.35
2023-01-17T17:51:35.538Z,13.00
2023-01-17T17:54:05.757Z,12.63
2023-01-17T17:56:33.585Z,13.10
2023-01-17T17:59:01.593Z,13.02
2023-01-17T18:01:29.421Z,13.40
2023-01-17T18:04:00.508Z,14.15
2023-01-17T18:06:27.003Z,13.43
2023-01-17T18:08:53.871Z,15.27
2023-01-17T18:11:23.181Z,13.30
2023-01-17T18:13:51.781Z,12.35
2023-01-17T18:16:22.893Z,13.00
2023-01-17T18:18:52.315Z,12.47
2023-01-17T18:21:21.803Z,12.55
2023-01-17T18:23:48.272Z,15.15
2023-01-17T18:26:26.989Z,20.33
2023-01-17T18:28:55.294Z,15.35
2023-01-17T18:31:23.162Z,16.47
2023-01-17T18:33:49.671Z,16.05
2023-01-17T18:36:16.111Z,15.13
2023-01-17T18:38:45.245Z,17.08
2023-01-17T18:41:22.794Z,17.30
2023-01-17T18:43:49.441Z,16.37
2023-01-17T18:46:17.334Z,17.42
2023-01-17T18:48:44.135Z,17.20
2023-01-17T18:51:14.032Z,17.27
2023-01-17T18:53:41.979Z,18.73
2023-01-17T18:56:10.867Z,18.37
2023-01-17T18:58:42.626Z,18.38
2023-01-17T19:01:11.987Z,22.73
2023-01-17T19:03:40.354Z,23.15
2023-01-17T19:06:09.718Z,21.70
2023-01-17T19:08:37.012Z,21.37
2023-01-17T19:11:03.862Z,19.35
2023-01-17T19:13:34.766Z,17.58
2023-01-17T19:16:02.987Z,18.20
2023-01-17T19:18:30.263Z,17.67
2023-01-17T19:21:05.423Z,18.70
2023-01-17T19:23:31.949Z,18.42
2023-01-17T19:25:58.400Z,18.67
2023-01-17T19:28:24.961Z,18.45
2023-01-17T19:31:01.922Z,19.98
2023-01-17T19:33:28.388Z,23.03
2023-01-17T19:35:58.953Z,22.35
2023-01-17T19:38:25.416Z,20.92
2023-01-17T19:40:51.958Z,20.98
2023-01-17T19:43:18.495Z,21.33
2023-01-17T19:45:54.621Z,20.93
2023-01-17T19:48:21.176Z,21.90
2023-01-17T19:50:47.577Z,22.67
2023-01-17T19:53:14.140Z,23.02
2023-01-17T19:55:40.685Z,22.55
2023-01-17T19:58:07.144Z,20.83
2023-01-17T20:00:33.739Z,23.30
2023-01-17T20:03:00.256Z,23.00
2023-01-17T20:05:26.901Z,24.10
2023-01-17T20:07:53.446Z,24.17
2023-01-17T20:10:19.969Z,20.93
2023-01-17T20:12:46.587Z,19.85
2023-01-17T20:15:13.137Z,19.85
2023-01-17T20:17:39.656Z,18.67
2023-01-17T20:20:07.578Z,18.30
2023-01-17T20:22:34.095Z,15.07
2023-01-17T20:25:00.604Z,14.85
2023-01-17T20:27:28.013Z,13.82
2023-01-17T20:29:54.500Z,14.60
2023-01-17T20:32:21.057Z,15.55
2023-01-17T20:34:47.489Z,16.90
2023-01-17T20:37:14.000Z,15.80
2023-01-17T20:39:40.517Z,19.48
2023-01-17T20:42:07.066Z,27.05
2023-01-17T20:44:33.596Z,16.83
2023-01-17T20:47:00.546Z,15.80
2023-01-17T20:49:27.089Z,17.00
2023-01-17T20:51:54.461Z,15.55
2023-01-17T20:54:21.438Z,15.48
2023-01-17T20:56:48.051Z,17.42
2023-01-17T20:59:17.784Z,17.60
2023-01-17T21:01:45.391Z,15.70
2023-01-17T21:04:12.406Z,16.38
2023-01-17T21:06:40.238Z,15.80
2023-01-17T21:09:08.268Z,15.98
2023-01-17T21:11:34.904Z,15.97
2023-01-17T21:14:01.620Z,15.82
2023-01-17T21:16:28.780Z,17.10
2023-01-17T21:18:55.325Z,16.77
2023-01-17T21:21:24.630Z,15.52
2023-01-17T21:23:53.525Z,16.63
2023-01-17T21:26:21.521Z,16.00
2023-01-17T21:28:50.008Z,16.77
2023-01-17T21:31:28.492Z,17.40
2023-01-17T21:33:56.510Z,16.77
2023-01-17T21:36:25.611Z,17.03
2023-01-17T21:38:54.595Z,17.58
2023-01-17T21:41:29.602Z,17.58
2023-01-17T21:43:58.686Z,20.30
2023-01-17T21:46:26.387Z,22.77
2023-01-17T21:48:53.179Z,23.03
2023-01-17T21:51:20.049Z,22.45
2023-01-17T21:53:46.574Z,22.38
2023-01-17T21:56:14.447Z,18.52
2023-01-17T21:58:40.980Z,17.52
2023-01-17T22:01:08.035Z,17.80
2023-01-17T22:03:35.922Z,17.35
2023-01-17T22:06:02.760Z,16.70
2023-01-17T22:08:32.307Z,17.05
2023-01-17T22:11:06.376Z,16.90
2023-01-17T22:13:33.986Z,17.03
2023-01-17T22:16:03.366Z,16.48
2023-01-17T22:18:31.059Z,17.17
2023-01-17T22:20:57.693Z,16.60
2023-01-17T22:23:24.151Z,15.82
2023-01-17T22:25:50.668Z,16.03
2023-01-17T22:28:17.193Z,16.63
2023-01-17T22:30:43.725Z,15.77
2023-01-17T22:33:10.274Z,14.18
2023-01-17T22:35:36.737Z,14.23
2023-01-17T22:38:03.268Z,14.10
2023-01-17T22:40:29.754Z,15.25
2023-01-17T22:42:56.538Z,15.25
2023-01-17T22:45:23.143Z,14.98
2023-01-17T22:47:49.649Z,17.63
2023-01-17T22:50:16.461Z,17.23
2023-01-17T22:52:43.031Z,15.70
2023-01-17T22:55:09.711Z,15.90
2023-01-17T22:57:36.233Z,14.77
2023-01-17T23:00:02.972Z,13.57
2023-01-17T23:02:29.443Z,14.13
2023-01-17T23:04:55.953Z,14.18
2023-01-17T23:07:22.492Z,14.02
2023-01-17T23:09:48.983Z,14.63
2023-01-17T23:12:15.411Z,15.32
2023-01-17T23:14:41.973Z,14.40
2023-01-17T23:17:08.540Z,15.20
2023-01-17T23:19:40.887Z,14.25
2023-01-17T23:22:10.785Z,15.38
2023-01-17T23:24:39.175Z,14.80
2023-01-17T23:27:05.921Z,15.07
2023-01-17T23:29:32.446Z,15.02
2023-01-17T23:31:58.945Z,14.48
2023-01-17T23:34:25.497Z,14.20
2023-01-17T23:36:51.983Z,15.38
2023-01-17T23:39:18.497Z,15.63
2023-01-17T23:41:45.006Z,16.25
2023-01-17T23:44:11.612Z,15.35
2023-01-17T23:46:38.212Z,14.90
2023-01-17T23:49:04.717Z,15.02
2023-01-17T23:51:31.229Z,14.17
2023-01-17T23:53:57.699Z,13.48
2023-01-17T23:56:24.490Z,13.80
2023-01-17T23:58:51.071Z,14.18
